sensor_id;sensor_type;location;lat;lon;timestamp;P1;durP1;ratioP1;P2;durP2;ratioP2
53781;SDS011;39692;53.114;7.060;2022-07-18T00:02:03;9.88;;;5.90;;
53781;SDS011;39692;53.114;7.060;2022-07-18T00:04:29;7.30;;;5.57;;
53781;SDS011;39692;53.114;7.060;2022-07-18T00:06:55;8.13;;;5.50;;
53781;SDS011;39692;53.114;7.060;2022-07-18T00:09:21;9.68;;;5.13;;
53781;SDS011;39692;53.114;7.060;2022-07-18T00:11:49;7.80;;;4.93;;
53781;SDS011;39692;53.114;7.060;2022-07-18T00:14:19;6.43;;;5.15;;
53781;SDS011;39692;53.114;7.060;2022-07-18T00:16:45;6.38;;;4.80;;
53781;SDS011;39692;53.114;7.060;2022-07-18T00:19:12;7.47;;;5.13;;
53781;SDS011;39692;53.114;7.060;2022-07-18T00:21:37;6.90;;;5.20;;
53781;SDS011;39692;53.114;7.060;2022-07-18T00:24:03;7.20;;;5.25;;
53781;SDS011;39692;53.114;7.060;2022-07-18T00:26:29;7.75;;;6.05;;
53781;SDS011;39692;53.114;7.060;2022-07-18T00:28:55;7.70;;;5.82;;
53781;SDS011;39692;53.114;7.060;2022-07-18T00:31:21;7.47;;;5.57;;
53781;SDS011;39692;53.114;7.060;2022-07-18T00:33:47;8.05;;;5.30;;
53781;SDS011;39692;53.114;7.060;2022-07-18T00:36:13;8.77;;;5.85;;
53781;SDS011;39692;53.114;7.060;2022-07-18T00:38:38;7.30;;;5.80;;
53781;SDS011;39692;53.114;7.060;2022-07-18T00:41:04;8.75;;;5.88;;
53781;SDS011;39692;53.114;7.060;2022-07-18T00:43:30;7.28;;;5.63;;
53781;SDS011;39692;53.114;7.060;2022-07-18T00:45:56;9.18;;;5.80;;
53781;SDS011;39692;53.114;7.060;2022-07-18T00:48:22;8.07;;;6.10;;
53781;SDS011;39692;53.114;7.060;2022-07-18T00:50:48;7.82;;;6.70;;
53781;SDS011;39692;53.114;7.060;2022-07-18T00:53:14;10.70;;;5.97;;
53781;SDS011;39692;53.114;7.060;2022-07-18T00:55:40;10.38;;;6.20;;
53781;SDS011;39692;53.114;7.060;2022-07-18T00:58:08;9.00;;;5.78;;
53781;SDS011;39692;53.114;7.060;2022-07-18T01:00:36;7.72;;;6.05;;
53781;SDS011;39692;53.114;7.060;2022-07-18T01:05:46;8.20;;;5.90;;
53781;SDS011;39692;53.114;7.060;2022-07-18T01:08:12;9.65;;;7.05;;
53781;SDS011;39692;53.114;7.060;2022-07-18T01:10:38;8.10;;;6.55;;
53781;SDS011;39692;53.114;7.060;2022-07-18T01:13:03;10.90;;;7.15;;
53781;SDS011;39692;53.114;7.060;2022-07-18T01:15:29;8.63;;;6.30;;
53781;SDS011;39692;53.114;7.060;2022-07-18T01:17:55;8.10;;;6.50;;
53781;SDS011;39692;53.114;7.060;2022-07-18T01:20:20;9.48;;;7.05;;
53781;SDS011;39692;53.114;7.060;2022-07-18T01:22:46;9.27;;;6.70;;
53781;SDS011;39692;53.114;7.060;2022-07-18T01:25:12;9.02;;;7.10;;
53781;SDS011;39692;53.114;7.060;2022-07-18T01:27:39;8.75;;;7.18;;
53781;SDS011;39692;53.114;7.060;2022-07-18T01:30:05;9.45;;;7.20;;
53781;SDS011;39692;53.114;7.060;2022-07-18T01:32:32;8.18;;;6.50;;
53781;SDS011;39692;53.114;7.060;2022-07-18T01:34:57;8.93;;;6.00;;
53781;SDS011;39692;53.114;7.060;2022-07-18T01:37:23;8.27;;;6.32;;
53781;SDS011;39692;53.114;7.060;2022-07-18T01:39:48;7.93;;;6.38;;
53781;SDS011;39692;53.114;7.060;2022-07-18T01:42:14;9.32;;;7.70;;
53781;SDS011;39692;53.114;7.060;2022-07-18T01:44:40;9.27;;;6.93;;
53781;SDS011;39692;53.114;7.060;2022-07-18T01:47:08;8.73;;;6.00;;
53781;SDS011;39692;53.114;7.060;2022-07-18T01:49:35;8.93;;;6.40;;
53781;SDS011;39692;53.114;7.060;2022-07-18T01:52:02;9.52;;;6.80;;
53781;SDS011;39692;53.114;7.060;2022-07-18T01:54:29;7.28;;;5.75;;
53781;SDS011;39692;53.114;7.060;2022-07-18T01:56:56;7.65;;;6.03;;
53781;SDS011;39692;53.114;7.060;2022-07-18T01:59:23;8.68;;;7.05;;
53781;SDS011;39692;53.114;7.060;2022-07-18T02:01:49;11.68;;;7.07;;
53781;SDS011;39692;53.114;7.060;2022-07-18T02:04:16;11.48;;;7.05;;
53781;SDS011;39692;53.114;7.060;2022-07-18T02:06:41;9.27;;;5.53;;
53781;SDS011;39692;53.114;7.060;2022-07-18T02:09:09;10.77;;;6.00;;
53781;SDS011;39692;53.114;7.060;2022-07-18T02:11:36;11.13;;;5.60;;
53781;SDS011;39692;53.114;7.060;2022-07-18T02:14:02;10.30;;;5.40;;
53781;SDS011;39692;53.114;7.060;2022-07-18T02:16:29;7.80;;;5.28;;
53781;SDS011;39692;53.114;7.060;2022-07-18T02:18:55;10.80;;;7.13;;
53781;SDS011;39692;53.114;7.060;2022-07-18T02:21:21;9.18;;;4.53;;
53781;SDS011;39692;53.114;7.060;2022-07-18T02:23:47;8.48;;;5.10;;
53781;SDS011;39692;53.114;7.060;2022-07-18T02:26:13;8.68;;;4.93;;
53781;SDS011;39692;53.114;7.060;2022-07-18T02:28:39;9.18;;;5.10;;
53781;SDS011;39692;53.114;7.060;2022-07-18T02:31:05;8.45;;;5.45;;
53781;SDS011;39692;53.114;7.060;2022-07-18T02:33:31;12.38;;;6.13;;
53781;SDS011;39692;53.114;7.060;2022-07-18T02:35:57;10.45;;;7.45;;
53781;SDS011;39692;53.114;7.060;2022-07-18T02:38:23;10.52;;;7.78;;
53781;SDS011;39692;53.114;7.060;2022-07-18T02:40:49;11.00;;;7.53;;
53781;SDS011;39692;53.114;7.060;2022-07-18T02:43:15;11.27;;;8.40;;
53781;SDS011;39692;53.114;7.060;2022-07-18T02:45:40;10.25;;;8.23;;
53781;SDS011;39692;53.114;7.060;2022-07-18T02:48:07;10.13;;;8.18;;
53781;SDS011;39692;53.114;7.060;2022-07-18T02:50:33;10.02;;;7.93;;
53781;SDS011;39692;53.114;7.060;2022-07-18T02:52:59;10.52;;;7.68;;
53781;SDS011;39692;53.114;7.060;2022-07-18T02:55:25;9.77;;;8.10;;
53781;SDS011;39692;53.114;7.060;2022-07-18T02:57:50;11.57;;;7.68;;
53781;SDS011;39692;53.114;7.060;2022-07-18T03:00:16;13.25;;;8.50;;
53781;SDS011;39692;53.114;7.060;2022-07-18T03:02:43;9.73;;;7.80;;
53781;SDS011;39692;53.114;7.060;2022-07-18T03:05:10;9.55;;;7.07;;
53781;SDS011;39692;53.114;7.060;2022-07-18T03:07:37;12.05;;;7.30;;
53781;SDS011;39692;53.114;7.060;2022-07-18T03:10:03;11.75;;;7.18;;
53781;SDS011;39692;53.114;7.060;2022-07-18T03:12:30;11.38;;;6.88;;
53781;SDS011;39692;53.114;7.060;2022-07-18T03:14:57;11.65;;;6.95;;
53781;SDS011;39692;53.114;7.060;2022-07-18T03:17:22;12.10;;;7.40;;
53781;SDS011;39692;53.114;7.060;2022-07-18T03:19:48;12.65;;;7.55;;
53781;SDS011;39692;53.114;7.060;2022-07-18T03:22:14;11.27;;;6.32;;
53781;SDS011;39692;53.114;7.060;2022-07-18T03:24:40;11.52;;;6.20;;
53781;SDS011;39692;53.114;7.060;2022-07-18T03:27:05;13.90;;;7.63;;
53781;SDS011;39692;53.114;7.060;2022-07-18T03:29:31;10.00;;;7.85;;
53781;SDS011;39692;53.114;7.060;2022-07-18T03:31:57;11.02;;;8.10;;
53781;SDS011;39692;53.114;7.060;2022-07-18T03:34:22;11.05;;;8.45;;
53781;SDS011;39692;53.114;7.060;2022-07-18T03:36:48;9.23;;;7.70;;
53781;SDS011;39692;53.114;7.060;2022-07-18T03:39:13;11.07;;;7.75;;
53781;SDS011;39692;53.114;7.060;2022-07-18T03:41:39;10.48;;;7.50;;
53781;SDS011;39692;53.114;7.060;2022-07-18T03:44:05;9.38;;;7.70;;
53781;SDS011;39692;53.114;7.060;2022-07-18T03:46:32;10.93;;;8.02;;
53781;SDS011;39692;53.114;7.060;2022-07-18T03:48:58;10.85;;;8.18;;
53781;SDS011;39692;53.114;7.060;2022-07-18T03:51:23;10.13;;;7.43;;
53781;SDS011;39692;53.114;7.060;2022-07-18T03:53:49;11.07;;;6.85;;
53781;SDS011;39692;53.114;7.060;2022-07-18T03:56:15;11.57;;;7.60;;
53781;SDS011;39692;53.114;7.060;2022-07-18T03:58:41;10.48;;;7.28;;
53781;SDS011;39692;53.114;7.060;2022-07-18T04:01:07;11.13;;;7.30;;
53781;SDS011;39692;53.114;7.060;2022-07-18T04:03:32;10.20;;;7.03;;
53781;SDS011;39692;53.114;7.060;2022-07-18T04:05:58;9.60;;;7.28;;
53781;SDS011;39692;53.114;7.060;2022-07-18T04:08:24;11.07;;;7.63;;
53781;SDS011;39692;53.114;7.060;2022-07-18T04:10:49;12.35;;;6.82;;
53781;SDS011;39692;53.114;7.060;2022-07-18T04:13:15;11.40;;;7.38;;
53781;SDS011;39692;53.114;7.060;2022-07-18T04:15:41;9.52;;;7.65;;
53781;SDS011;39692;53.114;7.060;2022-07-18T04:18:07;11.60;;;7.57;;
53781;SDS011;39692;53.114;7.060;2022-07-18T04:20:33;11.45;;;7.10;;
53781;SDS011;39692;53.114;7.060;2022-07-18T04:23:02;10.85;;;6.95;;
53781;SDS011;39692;53.114;7.060;2022-07-18T04:25:37;15.15;;;7.07;;
53781;SDS011;39692;53.114;7.060;2022-07-18T04:28:04;15.45;;;6.88;;
53781;SDS011;39692;53.114;7.060;2022-07-18T04:30:31;10.63;;;8.15;;
53781;SDS011;39692;53.114;7.060;2022-07-18T04:32:57;15.60;;;8.35;;
53781;SDS011;39692;53.114;7.060;2022-07-18T04:35:25;14.45;;;8.55;;
53781;SDS011;39692;53.114;7.060;2022-07-18T04:37:51;13.95;;;7.60;;
53781;SDS011;39692;53.114;7.060;2022-07-18T04:40:17;11.23;;;8.13;;
53781;SDS011;39692;53.114;7.060;2022-07-18T04:42:43;9.90;;;7.50;;
53781;SDS011;39692;53.114;7.060;2022-07-18T04:45:09;9.77;;;7.03;;
53781;SDS011;39692;53.114;7.060;2022-07-18T04:47:35;10.98;;;7.50;;
53781;SDS011;39692;53.114;7.060;2022-07-18T04:50:02;7.65;;;6.32;;
53781;SDS011;39692;53.114;7.060;2022-07-18T04:52:34;11.85;;;6.97;;
53781;SDS011;39692;53.114;7.060;2022-07-18T04:55:04;10.52;;;7.03;;
53781;SDS011;39692;53.114;7.060;2022-07-18T04:57:30;10.52;;;7.60;;
53781;SDS011;39692;53.114;7.060;2022-07-18T04:59:56;9.63;;;6.82;;
53781;SDS011;39692;53.114;7.060;2022-07-18T05:02:21;8.70;;;6.70;;
53781;SDS011;39692;53.114;7.060;2022-07-18T05:04:47;12.98;;;7.10;;
53781;SDS011;39692;53.114;7.060;2022-07-18T05:07:12;9.73;;;7.00;;
53781;SDS011;39692;53.114;7.060;2022-07-18T05:09:38;9.77;;;6.95;;
53781;SDS011;39692;53.114;7.060;2022-07-18T05:12:04;11.40;;;7.60;;
53781;SDS011;39692;53.114;7.060;2022-07-18T05:14:29;12.27;;;7.25;;
53781;SDS011;39692;53.114;7.060;2022-07-18T05:16:55;9.63;;;6.22;;
53781;SDS011;39692;53.114;7.060;2022-07-18T05:19:21;9.77;;;6.45;;
53781;SDS011;39692;53.114;7.060;2022-07-18T05:21:46;10.07;;;6.50;;
53781;SDS011;39692;53.114;7.060;2022-07-18T05:24:12;8.68;;;5.82;;
53781;SDS011;39692;53.114;7.060;2022-07-18T05:26:38;10.70;;;6.35;;
53781;SDS011;39692;53.114;7.060;2022-07-18T05:29:06;11.43;;;6.55;;
53781;SDS011;39692;53.114;7.060;2022-07-18T05:31:31;10.32;;;6.28;;
53781;SDS011;39692;53.114;7.060;2022-07-18T05:33:57;7.97;;;5.78;;
53781;SDS011;39692;53.114;7.060;2022-07-18T05:36:23;12.00;;;7.25;;
53781;SDS011;39692;53.114;7.060;2022-07-18T05:38:48;13.23;;;7.40;;
53781;SDS011;39692;53.114;7.060;2022-07-18T05:41:14;8.80;;;6.57;;
53781;SDS011;39692;53.114;7.060;2022-07-18T05:43:40;8.75;;;6.70;;
53781;SDS011;39692;53.114;7.060;2022-07-18T05:46:05;10.30;;;6.55;;
53781;SDS011;39692;53.114;7.060;2022-07-18T05:48:31;9.80;;;5.72;;
53781;SDS011;39692;53.114;7.060;2022-07-18T05:50:57;10.00;;;6.63;;
53781;SDS011;39692;53.114;7.060;2022-07-18T05:53:22;7.22;;;5.82;;
53781;SDS011;39692;53.114;7.060;2022-07-18T05:55:48;8.68;;;5.93;;
53781;SDS011;39692;53.114;7.060;2022-07-18T05:58:14;8.82;;;6.45;;
53781;SDS011;39692;53.114;7.060;2022-07-18T06:00:39;7.90;;;5.90;;
53781;SDS011;39692;53.114;7.060;2022-07-18T06:03:05;9.45;;;5.88;;
53781;SDS011;39692;53.114;7.060;2022-07-18T06:05:31;9.90;;;5.50;;
53781;SDS011;39692;53.114;7.060;2022-07-18T06:07:57;8.55;;;5.45;;
53781;SDS011;39692;53.114;7.060;2022-07-18T06:10:23;10.40;;;5.65;;
53781;SDS011;39692;53.114;7.060;2022-07-18T06:12:50;6.82;;;5.00;;
53781;SDS011;39692;53.114;7.060;2022-07-18T06:15:16;7.28;;;4.45;;
53781;SDS011;39692;53.114;7.060;2022-07-18T06:17:42;7.40;;;4.80;;
53781;SDS011;39692;53.114;7.060;2022-07-18T06:20:08;6.93;;;4.63;;
53781;SDS011;39692;53.114;7.060;2022-07-18T06:22:35;6.93;;;4.35;;
53781;SDS011;39692;53.114;7.060;2022-07-18T06:25:01;8.63;;;4.50;;
53781;SDS011;39692;53.114;7.060;2022-07-18T06:27:28;7.07;;;4.22;;
53781;SDS011;39692;53.114;7.060;2022-07-18T06:29:53;7.07;;;4.15;;
53781;SDS011;39692;53.114;7.060;2022-07-18T06:32:19;6.32;;;4.47;;
53781;SDS011;39692;53.114;7.060;2022-07-18T06:34:45;6.97;;;4.50;;
53781;SDS011;39692;53.114;7.060;2022-07-18T06:37:11;8.77;;;4.97;;
53781;SDS011;39692;53.114;7.060;2022-07-18T06:39:37;8.38;;;4.47;;
53781;SDS011;39692;53.114;7.060;2022-07-18T06:42:03;6.75;;;4.47;;
53781;SDS011;39692;53.114;7.060;2022-07-18T06:44:28;5.97;;;3.88;;
53781;SDS011;39692;53.114;7.060;2022-07-18T06:46:54;5.80;;;3.97;;
53781;SDS011;39692;53.114;7.060;2022-07-18T06:49:22;6.88;;;4.03;;
53781;SDS011;39692;53.114;7.060;2022-07-18T06:51:50;5.53;;;3.92;;
53781;SDS011;39692;53.114;7.060;2022-07-18T06:54:16;7.68;;;4.13;;
53781;SDS011;39692;53.114;7.060;2022-07-18T06:56:42;7.53;;;4.10;;
53781;SDS011;39692;53.114;7.060;2022-07-18T06:59:07;8.25;;;4.03;;
53781;SDS011;39692;53.114;7.060;2022-07-18T07:01:33;6.32;;;4.22;;
53781;SDS011;39692;53.114;7.060;2022-07-18T07:03:59;5.88;;;3.90;;
53781;SDS011;39692;53.114;7.060;2022-07-18T07:06:25;7.38;;;3.50;;
53781;SDS011;39692;53.114;7.060;2022-07-18T07:08:50;5.93;;;3.25;;
53781;SDS011;39692;53.114;7.060;2022-07-18T07:11:16;4.75;;;2.67;;
53781;SDS011;39692;53.114;7.060;2022-07-18T07:13:42;7.40;;;3.40;;
53781;SDS011;39692;53.114;7.060;2022-07-18T07:16:07;5.30;;;3.38;;
53781;SDS011;39692;53.114;7.060;2022-07-18T07:18:33;6.45;;;3.22;;
53781;SDS011;39692;53.114;7.060;2022-07-18T07:20:59;5.50;;;3.08;;
53781;SDS011;39692;53.114;7.060;2022-07-18T07:23:25;5.38;;;3.03;;
53781;SDS011;39692;53.114;7.060;2022-07-18T07:25:51;6.00;;;2.90;;
53781;SDS011;39692;53.114;7.060;2022-07-18T07:28:17;5.70;;;3.42;;
53781;SDS011;39692;53.114;7.060;2022-07-18T07:30:43;5.05;;;3.10;;
53781;SDS011;39692;53.114;7.060;2022-07-18T07:33:09;7.20;;;3.00;;
53781;SDS011;39692;53.114;7.060;2022-07-18T07:35:35;4.90;;;2.63;;
53781;SDS011;39692;53.114;7.060;2022-07-18T07:38:01;4.40;;;3.10;;
53781;SDS011;39692;53.114;7.060;2022-07-18T07:40:27;4.10;;;2.75;;
53781;SDS011;39692;53.114;7.060;2022-07-18T07:43:06;4.55;;;2.45;;
53781;SDS011;39692;53.114;7.060;2022-07-18T07:45:33;4.53;;;2.70;;
53781;SDS011;39692;53.114;7.060;2022-07-18T07:47:59;5.30;;;2.58;;
53781;SDS011;39692;53.114;7.060;2022-07-18T07:50:24;8.98;;;2.60;;
53781;SDS011;39692;53.114;7.060;2022-07-18T07:52:50;5.38;;;2.55;;
53781;SDS011;39692;53.114;7.060;2022-07-18T07:55:16;6.32;;;2.45;;
53781;SDS011;39692;53.114;7.060;2022-07-18T07:57:41;3.72;;;2.60;;
53781;SDS011;39692;53.114;7.060;2022-07-18T08:00:08;5.25;;;2.30;;
53781;SDS011;39692;53.114;7.060;2022-07-18T08:02:34;4.80;;;2.53;;
53781;SDS011;39692;53.114;7.060;2022-07-18T08:05:01;5.57;;;2.40;;
53781;SDS011;39692;53.114;7.060;2022-07-18T08:07:27;5.95;;;2.30;;
53781;SDS011;39692;53.114;7.060;2022-07-18T08:09:52;5.20;;;2.22;;
53781;SDS011;39692;53.114;7.060;2022-07-18T08:12:18;5.55;;;2.35;;
53781;SDS011;39692;53.114;7.060;2022-07-18T08:14:44;4.43;;;1.90;;
53781;SDS011;39692;53.114;7.060;2022-07-18T08:17:09;3.85;;;2.20;;
53781;SDS011;39692;53.114;7.060;2022-07-18T08:19:35;3.53;;;2.10;;
53781;SDS011;39692;53.114;7.060;2022-07-18T08:22:01;4.25;;;2.00;;
53781;SDS011;39692;53.114;7.060;2022-07-18T08:24:27;6.60;;;2.72;;
53781;SDS011;39692;53.114;7.060;2022-07-18T08:26:52;5.38;;;2.42;;
53781;SDS011;39692;53.114;7.060;2022-07-18T08:29:18;6.55;;;2.22;;
53781;SDS011;39692;53.114;7.060;2022-07-18T08:31:43;4.75;;;1.88;;
53781;SDS011;39692;53.114;7.060;2022-07-18T08:34:09;4.22;;;1.83;;
53781;SDS011;39692;53.114;7.060;2022-07-18T08:36:35;3.45;;;1.67;;
53781;SDS011;39692;53.114;7.060;2022-07-18T08:39:00;4.65;;;1.63;;
53781;SDS011;39692;53.114;7.060;2022-07-18T08:41:26;7.15;;;2.10;;
53781;SDS011;39692;53.114;7.060;2022-07-18T08:43:53;4.63;;;1.80;;
53781;SDS011;39692;53.114;7.060;2022-07-18T08:46:19;5.07;;;2.03;;
53781;SDS011;39692;53.114;7.060;2022-07-18T08:48:47;3.03;;;2.03;;
53781;SDS011;39692;53.114;7.060;2022-07-18T08:51:14;6.18;;;1.95;;
53781;SDS011;39692;53.114;7.060;2022-07-18T08:53:40;5.57;;;2.25;;
53781;SDS011;39692;53.114;7.060;2022-07-18T08:56:06;4.78;;;2.10;;
53781;SDS011;39692;53.114;7.060;2022-07-18T08:58:31;3.38;;;1.90;;
53781;SDS011;39692;53.114;7.060;2022-07-18T09:00:57;3.00;;;1.80;;
53781;SDS011;39692;53.114;7.060;2022-07-18T09:03:23;4.28;;;1.80;;
53781;SDS011;39692;53.114;7.060;2022-07-18T09:06:08;7.03;;;2.55;;
53781;SDS011;39692;53.114;7.060;2022-07-18T09:08:40;5.05;;;2.10;;
53781;SDS011;39692;53.114;7.060;2022-07-18T09:11:25;3.75;;;1.77;;
53781;SDS011;39692;53.114;7.060;2022-07-18T09:13:51;5.85;;;1.77;;
53781;SDS011;39692;53.114;7.060;2022-07-18T09:16:17;3.67;;;1.80;;
53781;SDS011;39692;53.114;7.060;2022-07-18T09:18:43;6.65;;;1.80;;
53781;SDS011;39692;53.114;7.060;2022-07-18T09:21:14;4.75;;;1.70;;
53781;SDS011;39692;53.114;7.060;2022-07-18T09:23:45;6.18;;;2.00;;
53781;SDS011;39692;53.114;7.060;2022-07-18T09:26:17;6.03;;;1.75;;
53781;SDS011;39692;53.114;7.060;2022-07-18T09:29:05;6.10;;;1.83;;
53781;SDS011;39692;53.114;7.060;2022-07-18T09:31:31;7.57;;;2.00;;
53781;SDS011;39692;53.114;7.060;2022-07-18T09:34:01;2.67;;;1.60;;
53781;SDS011;39692;53.114;7.060;2022-07-18T09:36:28;4.03;;;1.60;;
53781;SDS011;39692;53.114;7.060;2022-07-18T09:38:55;4.35;;;1.70;;
53781;SDS011;39692;53.114;7.060;2022-07-18T09:41:22;3.75;;;1.58;;
53781;SDS011;39692;53.114;7.060;2022-07-18T09:43:49;4.72;;;1.48;;
53781;SDS011;39692;53.114;7.060;2022-07-18T09:46:15;5.63;;;1.67;;
53781;SDS011;39692;53.114;7.060;2022-07-18T09:48:41;3.88;;;1.67;;
53781;SDS011;39692;53.114;7.060;2022-07-18T09:51:07;3.13;;;1.45;;
53781;SDS011;39692;53.114;7.060;2022-07-18T09:53:36;7.75;;;2.22;;
53781;SDS011;39692;53.114;7.060;2022-07-18T09:56:05;5.47;;;2.20;;
53781;SDS011;39692;53.114;7.060;2022-07-18T09:58:36;3.38;;;1.45;;
53781;SDS011;39692;53.114;7.060;2022-07-18T10:01:03;8.70;;;2.13;;
53781;SDS011;39692;53.114;7.060;2022-07-18T10:03:31;6.13;;;1.50;;
53781;SDS011;39692;53.114;7.060;2022-07-18T10:05:57;7.22;;;1.88;;
53781;SDS011;39692;53.114;7.060;2022-07-18T10:08:27;3.83;;;1.55;;
53781;SDS011;39692;53.114;7.060;2022-07-18T10:10:55;3.85;;;1.65;;
53781;SDS011;39692;53.114;7.060;2022-07-18T10:13:26;5.15;;;1.67;;
53781;SDS011;39692;53.114;7.060;2022-07-18T10:15:53;3.55;;;1.65;;
53781;SDS011;39692;53.114;7.060;2022-07-18T10:18:20;3.47;;;1.48;;
53781;SDS011;39692;53.114;7.060;2022-07-18T10:20:52;3.67;;;1.70;;
53781;SDS011;39692;53.114;7.060;2022-07-18T10:23:20;5.60;;;1.50;;
53781;SDS011;39692;53.114;7.060;2022-07-18T10:26:18;4.05;;;1.73;;
53781;SDS011;39692;53.114;7.060;2022-07-18T10:33:48;3.10;;;1.50;;
53781;SDS011;39692;53.114;7.060;2022-07-18T10:36:15;4.35;;;1.77;;
53781;SDS011;39692;53.114;7.060;2022-07-18T10:41:26;3.10;;;1.60;;
53781;SDS011;39692;53.114;7.060;2022-07-18T10:43:52;5.22;;;1.60;;
53781;SDS011;39692;53.114;7.060;2022-07-18T10:46:17;6.03;;;2.00;;
53781;SDS011;39692;53.114;7.060;2022-07-18T10:51:12;4.28;;;2.10;;
53781;SDS011;39692;53.114;7.060;2022-07-18T10:56:19;6.68;;;1.85;;
53781;SDS011;39692;53.114;7.060;2022-07-18T10:58:45;4.15;;;1.80;;
53781;SDS011;39692;53.114;7.060;2022-07-18T11:01:15;3.58;;;1.77;;
53781;SDS011;39692;53.114;7.060;2022-07-18T11:03:42;3.53;;;1.80;;
53781;SDS011;39692;53.114;7.060;2022-07-18T11:06:07;4.78;;;1.80;;
53781;SDS011;39692;53.114;7.060;2022-07-18T11:08:34;5.65;;;2.20;;
53781;SDS011;39692;53.114;7.060;2022-07-18T11:13:39;3.80;;;2.40;;
53781;SDS011;39692;53.114;7.060;2022-07-18T11:16:12;5.95;;;2.22;;
53781;SDS011;39692;53.114;7.060;2022-07-18T11:21:15;7.25;;;2.25;;
53781;SDS011;39692;53.114;7.060;2022-07-18T11:24:05;4.07;;;2.15;;
53781;SDS011;39692;53.114;7.060;2022-07-18T11:26:32;4.88;;;2.85;;
53781;SDS011;39692;53.114;7.060;2022-07-18T11:29:00;3.80;;;2.30;;
53781;SDS011;39692;53.114;7.060;2022-07-18T11:31:31;5.40;;;2.58;;
53781;SDS011;39692;53.114;7.060;2022-07-18T11:34:07;4.70;;;2.63;;
53781;SDS011;39692;53.114;7.060;2022-07-18T11:36:33;4.07;;;2.20;;
53781;SDS011;39692;53.114;7.060;2022-07-18T11:38:59;5.07;;;2.47;;
53781;SDS011;39692;53.114;7.060;2022-07-18T11:41:27;4.50;;;2.55;;
53781;SDS011;39692;53.114;7.060;2022-07-18T11:43:54;4.55;;;2.72;;
53781;SDS011;39692;53.114;7.060;2022-07-18T11:46:21;5.95;;;2.42;;
53781;SDS011;39692;53.114;7.060;2022-07-18T11:48:49;6.43;;;2.50;;
53781;SDS011;39692;53.114;7.060;2022-07-18T11:51:33;3.53;;;2.58;;
53781;SDS011;39692;53.114;7.060;2022-07-18T11:54:04;4.55;;;2.60;;
53781;SDS011;39692;53.114;7.060;2022-07-18T11:56:30;3.80;;;2.60;;
53781;SDS011;39692;53.114;7.060;2022-07-18T11:58:56;4.28;;;2.70;;
53781;SDS011;39692;53.114;7.060;2022-07-18T12:01:29;4.20;;;2.63;;
53781;SDS011;39692;53.114;7.060;2022-07-18T12:03:58;4.20;;;2.78;;
53781;SDS011;39692;53.114;7.060;2022-07-18T12:06:25;5.10;;;2.65;;
53781;SDS011;39692;53.114;7.060;2022-07-18T12:08:56;6.90;;;2.67;;
53781;SDS011;39692;53.114;7.060;2022-07-18T12:11:29;5.00;;;2.40;;
53781;SDS011;39692;53.114;7.060;2022-07-18T12:19:07;6.35;;;3.33;;
53781;SDS011;39692;53.114;7.060;2022-07-18T12:21:42;5.88;;;3.10;;
53781;SDS011;39692;53.114;7.060;2022-07-18T12:24:49;4.80;;;3.33;;
53781;SDS011;39692;53.114;7.060;2022-07-18T12:30:20;4.85;;;3.08;;
53781;SDS011;39692;53.114;7.060;2022-07-18T12:32:59;5.15;;;2.97;;
53781;SDS011;39692;53.114;7.060;2022-07-18T12:35:33;4.20;;;3.10;;
53781;SDS011;39692;53.114;7.060;2022-07-18T12:38:09;6.53;;;3.20;;
53781;SDS011;39692;53.114;7.060;2022-07-18T12:43:32;5.22;;;3.28;;
53781;SDS011;39692;53.114;7.060;2022-07-18T12:46:02;4.22;;;3.30;;
53781;SDS011;39692;53.114;7.060;2022-07-18T12:48:31;5.90;;;3.75;;
53781;SDS011;39692;53.114;7.060;2022-07-18T12:50:59;6.00;;;3.33;;
53781;SDS011;39692;53.114;7.060;2022-07-18T12:53:27;5.43;;;3.92;;
53781;SDS011;39692;53.114;7.060;2022-07-18T12:55:54;5.13;;;3.53;;
53781;SDS011;39692;53.114;7.060;2022-07-18T12:58:19;6.80;;;3.28;;
53781;SDS011;39692;53.114;7.060;2022-07-18T13:00:46;4.78;;;3.25;;
53781;SDS011;39692;53.114;7.060;2022-07-18T13:03:12;6.90;;;3.42;;
53781;SDS011;39692;53.114;7.060;2022-07-18T13:05:38;5.45;;;3.40;;
53781;SDS011;39692;53.114;7.060;2022-07-18T13:08:04;4.93;;;3.17;;
53781;SDS011;39692;53.114;7.060;2022-07-18T13:10:32;4.30;;;3.10;;
53781;SDS011;39692;53.114;7.060;2022-07-18T13:13:00;5.28;;;2.95;;
53781;SDS011;39692;53.114;7.060;2022-07-18T13:15:27;4.85;;;3.15;;
53781;SDS011;39692;53.114;7.060;2022-07-18T13:17:53;4.97;;;3.10;;
53781;SDS011;39692;53.114;7.060;2022-07-18T13:20:20;5.15;;;3.20;;
53781;SDS011;39692;53.114;7.060;2022-07-18T13:22:46;5.55;;;3.05;;
53781;SDS011;39692;53.114;7.060;2022-07-18T13:25:11;3.95;;;2.65;;
53781;SDS011;39692;53.114;7.060;2022-07-18T13:27:37;6.80;;;3.65;;
53781;SDS011;39692;53.114;7.060;2022-07-18T13:30:04;5.13;;;2.90;;
53781;SDS011;39692;53.114;7.060;2022-07-18T13:32:31;4.90;;;2.65;;
53781;SDS011;39692;53.114;7.060;2022-07-18T13:34:57;5.50;;;3.20;;
53781;SDS011;39692;53.114;7.060;2022-07-18T13:37:23;5.53;;;3.05;;
53781;SDS011;39692;53.114;7.060;2022-07-18T13:39:49;5.03;;;2.90;;
53781;SDS011;39692;53.114;7.060;2022-07-18T13:42:15;5.47;;;3.22;;
53781;SDS011;39692;53.114;7.060;2022-07-18T13:44:40;5.28;;;3.10;;
53781;SDS011;39692;53.114;7.060;2022-07-18T13:47:06;4.68;;;3.13;;
53781;SDS011;39692;53.114;7.060;2022-07-18T13:49:32;5.50;;;3.33;;
53781;SDS011;39692;53.114;7.060;2022-07-18T13:51:58;5.47;;;3.00;;
53781;SDS011;39692;53.114;7.060;2022-07-18T13:54:23;6.00;;;3.33;;
53781;SDS011;39692;53.114;7.060;2022-07-18T13:56:49;5.05;;;2.90;;
53781;SDS011;39692;53.114;7.060;2022-07-18T13:59:15;5.22;;;2.92;;
53781;SDS011;39692;53.114;7.060;2022-07-18T14:01:40;4.97;;;3.13;;
53781;SDS011;39692;53.114;7.060;2022-07-18T14:04:07;6.45;;;2.95;;
53781;SDS011;39692;53.114;7.060;2022-07-18T14:06:34;4.55;;;3.08;;
53781;SDS011;39692;53.114;7.060;2022-07-18T14:09:01;4.50;;;2.90;;
53781;SDS011;39692;53.114;7.060;2022-07-18T14:11:27;4.82;;;3.00;;
53781;SDS011;39692;53.114;7.060;2022-07-18T14:13:53;5.00;;;3.13;;
53781;SDS011;39692;53.114;7.060;2022-07-18T14:16:19;4.25;;;2.95;;
53781;SDS011;39692;53.114;7.060;2022-07-18T14:18:45;4.10;;;2.90;;
53781;SDS011;39692;53.114;7.060;2022-07-18T14:21:10;6.10;;;3.05;;
53781;SDS011;39692;53.114;7.060;2022-07-18T14:23:36;5.13;;;2.97;;
53781;SDS011;39692;53.114;7.060;2022-07-18T14:26:02;3.63;;;2.47;;
53781;SDS011;39692;53.114;7.060;2022-07-18T14:28:28;8.35;;;2.80;;
53781;SDS011;39692;53.114;7.060;2022-07-18T14:30:53;5.25;;;2.97;;
53781;SDS011;39692;53.114;7.060;2022-07-18T14:33:19;4.22;;;2.75;;
53781;SDS011;39692;53.114;7.060;2022-07-18T14:35:45;7.00;;;3.33;;
53781;SDS011;39692;53.114;7.060;2022-07-18T14:38:10;4.93;;;3.00;;
53781;SDS011;39692;53.114;7.060;2022-07-18T14:40:36;5.35;;;3.25;;
53781;SDS011;39692;53.114;7.060;2022-07-18T14:43:01;4.57;;;3.05;;
53781;SDS011;39692;53.114;7.060;2022-07-18T14:45:27;5.53;;;3.00;;
53781;SDS011;39692;53.114;7.060;2022-07-18T14:47:53;5.53;;;2.88;;
53781;SDS011;39692;53.114;7.060;2022-07-18T14:50:18;7.60;;;3.75;;
53781;SDS011;39692;53.114;7.060;2022-07-18T14:52:44;5.15;;;2.92;;
53781;SDS011;39692;53.114;7.060;2022-07-18T14:55:10;4.93;;;3.00;;
53781;SDS011;39692;53.114;7.060;2022-07-18T14:57:35;4.70;;;3.30;;
53781;SDS011;39692;53.114;7.060;2022-07-18T15:00:03;6.43;;;3.30;;
53781;SDS011;39692;53.114;7.060;2022-07-18T15:02:31;5.97;;;3.00;;
53781;SDS011;39692;53.114;7.060;2022-07-18T15:04:56;4.75;;;3.00;;
53781;SDS011;39692;53.114;7.060;2022-07-18T15:07:22;5.10;;;3.22;;
53781;SDS011;39692;53.114;7.060;2022-07-18T15:09:48;5.13;;;3.13;;
53781;SDS011;39692;53.114;7.060;2022-07-18T15:12:13;5.65;;;2.78;;
53781;SDS011;39692;53.114;7.060;2022-07-18T15:14:40;5.00;;;3.03;;
53781;SDS011;39692;53.114;7.060;2022-07-18T15:17:06;6.15;;;3.08;;